createdAt,value
2017-06-12T00:00:03.093Z,63
2017-06-12T00:01:03.816Z,63
2017-06-12T00:02:04.539Z,63
2017-06-12T00:03:05.288Z,62
2017-06-12T00:04:06.013Z,62
2017-06-12T00:05:06.736Z,62
2017-06-12T00:06:07.455Z,61
2017-06-12T00:07:08.180Z,61
2017-06-12T00:08:08.905Z,61
2017-06-12T00:09:09.626Z,61
2017-06-12T00:10:10.351Z,61
2017-06-12T00:11:11.076Z,60
2017-06-12T00:12:11.801Z,60
2017-06-12T00:13:12.525Z,60
2017-06-12T00:14:13.247Z,59
2017-06-12T00:15:13.972Z,59
2017-06-12T00:16:14.695Z,59
2017-06-12T00:17:15.419Z,59
2017-06-12T00:18:16.141Z,58
2017-06-12T00:19:16.864Z,58
2017-06-12T00:20:17.614Z,58
2017-06-12T00:21:18.336Z,58
2017-06-12T00:22:19.057Z,58
2017-06-12T00:23:19.780Z,56
2017-06-12T00:24:20.503Z,56
2017-06-12T00:25:21.228Z,55
2017-06-12T00:26:21.948Z,56
2017-06-12T00:27:22.672Z,55
2017-06-12T00:28:23.396Z,54
2017-06-12T00:29:24.116Z,55
2017-06-12T00:30:24.844Z,54
2017-06-12T00:31:25.566Z,54
2017-06-12T00:32:26.286Z,54
2017-06-12T00:34:27.639Z,54
2017-06-12T00:35:28.364Z,54
2017-06-12T00:36:29.091Z,54
2017-06-12T00:37:29.817Z,54
2017-06-12T00:38:30.539Z,54
2017-06-12T00:39:31.265Z,54
2017-06-12T00:40:31.991Z,54
2017-06-12T00:41:32.718Z,54
2017-06-12T00:42:33.441Z,54
2017-06-12T00:43:34.168Z,54
2017-06-12T00:44:34.892Z,54
2017-06-12T00:45:35.619Z,54
2017-06-12T00:46:36.342Z,55
2017-06-12T00:47:37.068Z,55
2017-06-12T00:48:37.793Z,55
2017-06-12T00:49:38.516Z,55
2017-06-12T00:50:39.242Z,56
2017-06-12T00:51:39.965Z,56
2017-06-12T00:52:40.690Z,56
2017-06-12T00:53:41.417Z,57
2017-06-12T00:54:42.143Z,57
2017-06-12T00:55:42.866Z,57
2017-06-12T00:56:43.591Z,58
2017-06-12T00:57:44.320Z,58
2017-06-12T00:58:45.047Z,57
2017-06-12T00:59:45.774Z,58
2017-06-12T01:00:46.500Z,58
2017-06-12T01:01:47.222Z,58
2017-06-12T01:02:47.948Z,59
2017-06-12T01:03:48.675Z,59
2017-06-12T01:04:49.427Z,59
2017-06-12T01:05:50.178Z,59
2017-06-12T01:06:50.902Z,59
2017-06-12T01:07:51.626Z,59
2017-06-12T01:08:52.350Z,59
2017-06-12T01:09:53.076Z,59
2017-06-12T01:10:53.801Z,59
2017-06-12T01:11:54.526Z,59
2017-06-12T01:12:55.252Z,59
2017-06-12T01:13:55.979Z,58
2017-06-12T01:14:56.704Z,58
2017-06-12T01:15:57.429Z,58
2017-06-12T01:16:58.154Z,58
2017-06-12T01:17:58.881Z,57
2017-06-12T01:18:59.606Z,57
2017-06-12T01:20:00.353Z,57
2017-06-12T01:21:01.074Z,57
2017-06-12T01:22:01.799Z,57
2017-06-12T01:23:02.521Z,57
2017-06-12T01:24:03.246Z,57
2017-06-12T01:25:03.972Z,57
2017-06-12T01:26:04.694Z,56
2017-06-12T01:27:05.444Z,57
2017-06-12T01:28:06.168Z,57
2017-06-12T01:29:06.893Z,57
2017-06-12T01:30:07.617Z,57
2017-06-12T01:31:08.340Z,57
2017-06-12T01:32:09.067Z,57
2017-06-12T01:33:09.817Z,57
2017-06-12T01:34:10.540Z,56
2017-06-12T01:35:11.266Z,56
2017-06-12T01:36:11.989Z,55
2017-06-12T01:37:12.712Z,56
2017-06-12T01:38:13.439Z,56
2017-06-12T01:39:14.163Z,56
2017-06-12T01:40:14.886Z,56
2017-06-12T01:41:15.614Z,56
2017-06-12T01:42:16.339Z,56
2017-06-12T01:43:17.061Z,57
2017-06-12T01:44:17.786Z,57
2017-06-12T01:45:18.538Z,57
2017-06-12T01:46:19.288Z,58
2017-06-12T01:47:20.012Z,57
2017-06-12T01:48:20.739Z,58
2017-06-12T01:49:21.464Z,58
2017-06-12T01:50:22.190Z,58
2017-06-12T01:51:22.914Z,58
2017-06-12T01:52:23.666Z,59
2017-06-12T01:53:24.388Z,59
2017-06-12T01:54:25.111Z,59
2017-06-12T01:55:25.839Z,59
2017-06-12T01:56:26.561Z,59
2017-06-12T01:57:27.286Z,59
2017-06-12T01:58:28.011Z,59
2017-06-12T01:59:28.737Z,58
2017-06-12T02:00:29.462Z,58
2017-06-12T02:01:30.184Z,58
2017-06-12T02:02:30.908Z,58
2017-06-12T02:03:31.633Z,59
2017-06-12T02:04:32.359Z,58
2017-06-12T02:05:33.079Z,58
2017-06-12T02:06:33.802Z,58
2017-06-12T02:07:34.528Z,58
2017-06-12T02:08:35.279Z,58
2017-06-12T02:09:36.002Z,58
2017-06-12T02:10:36.728Z,58
2017-06-12T02:11:37.451Z,58
2017-06-12T02:12:38.174Z,58
2017-06-12T02:13:38.899Z,59
2017-06-12T02:14:39.649Z,59
2017-06-12T02:15:40.401Z,59
2017-06-12T02:16:41.126Z,59
2017-06-12T02:17:41.853Z,59
2017-06-12T02:18:42.578Z,59
2017-06-12T02:19:43.304Z,59
2017-06-12T02:20:44.025Z,59
2017-06-12T02:21:44.750Z,59
2017-06-12T02:22:45.477Z,59
2017-06-12T02:23:46.202Z,59
2017-06-12T02:24:46.926Z,59
2017-06-12T02:25:47.673Z,59
2017-06-12T02:26:48.397Z,59
2017-06-12T02:27:49.125Z,59
2017-06-12T02:28:49.848Z,59
2017-06-12T02:29:50.575Z,59
2017-06-12T02:30:51.297Z,59
2017-06-12T02:31:52.025Z,60
2017-06-12T02:32:52.748Z,60
2017-06-12T02:33:53.474Z,60
2017-06-12T02:34:54.194Z,60
2017-06-12T02:35:54.920Z,60
2017-06-12T02:36:55.646Z,61
2017-06-12T02:37:56.372Z,60
2017-06-12T02:38:57.093Z,60
2017-06-12T02:39:57.817Z,60
2017-06-12T02:40:58.541Z,60
2017-06-12T02:41:59.267Z,60
2017-06-12T02:42:59.989Z,61
2017-06-12T02:44:00.715Z,61
2017-06-12T02:45:01.439Z,60
2017-06-12T02:46:02.186Z,60
2017-06-12T02:47:02.935Z,61
2017-06-12T02:48:03.663Z,61
2017-06-12T02:49:04.388Z,60
2017-06-12T02:50:05.114Z,60
2017-06-12T02:51:05.841Z,61
2017-06-12T02:52:06.565Z,61
2017-06-12T02:53:07.289Z,62
2017-06-12T02:54:08.017Z,61
2017-06-12T02:55:08.743Z,61
2017-06-12T02:56:09.467Z,62
2017-06-12T02:57:10.192Z,62
2017-06-12T02:58:10.918Z,61
2017-06-12T02:59:11.647Z,61
2017-06-12T03:00:12.373Z,62
2017-06-12T03:01:13.097Z,62
2017-06-12T03:02:13.847Z,62
2017-06-12T03:03:14.573Z,62
2017-06-12T03:04:15.300Z,62
2017-06-12T03:05:16.053Z,62
2017-06-12T03:06:16.782Z,62
2017-06-12T03:07:17.532Z,62
2017-06-12T03:08:18.281Z,62
2017-06-12T03:09:19.009Z,62
2017-06-12T03:10:19.761Z,63
2017-06-12T03:11:20.486Z,63
2017-06-12T03:12:21.212Z,63
2017-06-12T03:13:21.938Z,63
2017-06-12T03:14:22.666Z,63
2017-06-12T03:15:23.390Z,63
2017-06-12T03:16:24.145Z,63
2017-06-12T03:17:24.870Z,63
2017-06-12T03:18:25.601Z,63
2017-06-12T03:19:26.330Z,64
2017-06-12T03:20:27.057Z,64
2017-06-12T03:21:27.787Z,63
2017-06-12T03:22:28.513Z,64
2017-06-12T03:23:29.243Z,64
2017-06-12T03:24:29.968Z,64
2017-06-12T03:25:30.695Z,64
2017-06-12T03:26:31.425Z,64
2017-06-12T03:27:32.179Z,64
2017-06-12T03:28:32.930Z,64
2017-06-12T03:29:33.658Z,64
2017-06-12T03:30:34.409Z,65
2017-06-12T03:31:35.138Z,64
2017-06-12T03:32:35.864Z,65
2017-06-12T03:33:36.590Z,65
2017-06-12T03:34:37.318Z,65
2017-06-12T03:35:38.046Z,65
2017-06-12T03:36:38.773Z,65
2017-06-12T03:37:39.502Z,65
2017-06-12T03:38:40.227Z,65
2017-06-12T03:39:40.957Z,65
2017-06-12T03:40:41.686Z,66
2017-06-12T03:41:42.413Z,65
2017-06-12T03:42:43.137Z,65
2017-06-12T03:43:43.869Z,65
2017-06-12T03:44:44.593Z,65
2017-06-12T03:45:45.319Z,65
2017-06-12T03:46:46.045Z,65
2017-06-12T03:47:46.775Z,66
2017-06-12T03:48:47.499Z,66
2017-06-12T03:49:48.225Z,67
2017-06-12T03:50:48.955Z,67
2017-06-12T03:51:49.681Z,67
2017-06-12T03:52:50.407Z,67
2017-06-12T03:53:51.135Z,67
2017-06-12T03:54:51.866Z,68
2017-06-12T03:55:52.595Z,68
2017-06-12T03:56:53.326Z,68
2017-06-12T03:57:54.052Z,68
2017-06-12T03:58:54.783Z,69
2017-06-12T03:59:55.510Z,69
2017-06-12T04:00:56.242Z,69
2017-06-12T04:01:56.970Z,69
2017-06-12T04:02:57.698Z,69
2017-06-12T04:03:58.428Z,69
2017-06-12T04:04:59.156Z,69
2017-06-12T04:05:59.884Z,69
2017-06-12T04:07:00.613Z,69
2017-06-12T04:08:01.342Z,69
2017-06-12T04:09:02.072Z,69
2017-06-12T04:10:02.825Z,69
2017-06-12T04:11:03.554Z,69
2017-06-12T04:12:04.283Z,69
2017-06-12T04:13:05.010Z,69
2017-06-12T04:14:05.737Z,69
2017-06-12T04:15:06.468Z,68
2017-06-12T04:16:07.198Z,68
2017-06-12T04:17:07.922Z,69
2017-06-12T04:18:08.652Z,69
2017-06-12T04:19:09.382Z,68
2017-06-12T04:20:10.111Z,69
2017-06-12T04:21:10.842Z,68
2017-06-12T04:22:11.572Z,69
2017-06-12T04:23:12.298Z,69
2017-06-12T04:24:13.028Z,68
2017-06-12T04:25:13.783Z,68
2017-06-12T04:26:14.511Z,69
2017-06-12T04:27:15.244Z,68
2017-06-12T04:28:15.968Z,68
2017-06-12T04:29:16.696Z,69
2017-06-12T04:30:17.428Z,69
2017-06-12T04:31:18.155Z,69
2017-06-12T04:32:18.884Z,69
2017-06-12T04:33:19.614Z,69
2017-06-12T04:34:20.343Z,69
2017-06-12T04:35:21.070Z,69
2017-06-12T04:36:21.822Z,69
2017-06-12T04:37:22.579Z,69
2017-06-12T04:38:23.303Z,69
2017-06-12T04:39:24.035Z,70
2017-06-12T04:40:24.765Z,69
2017-06-12T04:41:25.497Z,70
2017-06-12T04:42:26.224Z,70
2017-06-12T04:43:26.950Z,70
2017-06-12T04:44:27.683Z,70
2017-06-12T04:45:28.410Z,70
2017-06-12T04:46:29.138Z,69
2017-06-12T04:47:29.868Z,69
2017-06-12T04:48:30.598Z,70
2017-06-12T04:49:31.327Z,69
2017-06-12T04:50:32.053Z,69
2017-06-12T04:51:32.782Z,69
2017-06-12T04:52:33.514Z,69
2017-06-12T04:53:34.245Z,69
2017-06-12T04:54:34.970Z,69
2017-06-12T04:55:35.701Z,70
2017-06-12T04:56:36.431Z,69
2017-06-12T04:57:37.162Z,69
2017-06-12T04:58:37.895Z,70
2017-06-12T04:59:38.623Z,70
2017-06-12T05:00:39.351Z,70
2017-06-12T05:01:40.082Z,70
2017-06-12T05:02:40.811Z,70
2017-06-12T05:03:41.542Z,70
2017-06-12T05:04:42.271Z,71
2017-06-12T05:05:43.001Z,71
2017-06-12T05:06:43.732Z,71
2017-06-12T05:07:44.463Z,71
2017-06-12T05:08:45.193Z,71
2017-06-12T05:09:45.922Z,71
2017-06-12T05:10:46.654Z,71
2017-06-12T05:11:47.381Z,71
2017-06-12T05:12:48.112Z,72
2017-06-12T05:13:48.844Z,72
2017-06-12T05:14:49.573Z,71
2017-06-12T05:15:50.303Z,72
2017-06-12T05:16:51.033Z,72
2017-06-12T05:17:51.789Z,72
2017-06-12T05:18:52.518Z,71
2017-06-12T05:19:53.249Z,72
2017-06-12T05:20:53.981Z,72
2017-06-12T05:21:54.710Z,72
2017-06-12T05:22:55.441Z,72
2017-06-12T05:23:56.174Z,72
2017-06-12T05:24:56.903Z,72
2017-06-12T05:25:57.634Z,72
2017-06-12T05:26:58.365Z,72
2017-06-12T05:27:59.097Z,72
2017-06-12T05:28:59.852Z,72
2017-06-12T05:30:00.583Z,72
2017-06-12T05:31:01.313Z,72
2017-06-12T05:32:02.043Z,72
2017-06-12T05:33:02.776Z,72
2017-06-12T05:34:03.508Z,72
2017-06-12T05:35:04.238Z,72
2017-06-12T05:36:04.966Z,72
2017-06-12T05:37:05.697Z,72
2017-06-12T05:38:06.433Z,73
2017-06-12T05:39:07.160Z,73
2017-06-12T05:40:07.890Z,73
2017-06-12T05:41:08.622Z,73
2017-06-12T05:42:09.352Z,72
2017-06-12T05:43:10.083Z,72
2017-06-12T05:44:10.813Z,72
2017-06-12T05:45:11.545Z,72
2017-06-12T05:46:12.276Z,72
2017-06-12T05:47:13.004Z,72
2017-06-12T05:48:13.738Z,72
2017-06-12T05:49:14.469Z,72
2017-06-12T05:50:15.202Z,71
2017-06-12T05:51:15.932Z,71
2017-06-12T05:52:16.664Z,71
2017-06-12T05:53:17.395Z,71
2017-06-12T05:54:18.126Z,71
2017-06-12T05:55:18.859Z,70
2017-06-12T05:56:19.590Z,70
2017-06-12T05:57:20.319Z,71
2017-06-12T05:58:21.053Z,71
2017-06-12T05:59:21.785Z,71
2017-06-12T06:00:22.519Z,71
2017-06-12T06:01:23.277Z,71
2017-06-12T06:02:24.005Z,72
2017-06-12T06:03:24.738Z,72
2017-06-12T06:04:25.469Z,71
2017-06-12T06:05:26.201Z,71
2017-06-12T06:06:26.932Z,71
2017-06-12T06:07:27.661Z,71
2017-06-12T06:08:28.392Z,71
2017-06-12T06:09:29.125Z,70
2017-06-12T06:10:29.856Z,70
2017-06-12T06:11:30.589Z,70
2017-06-12T06:12:31.318Z,70
2017-06-12T06:13:32.050Z,70
2017-06-12T06:14:32.783Z,70
2017-06-12T06:15:33.512Z,70
2017-06-12T06:16:34.244Z,68
2017-06-12T06:17:34.978Z,70
2017-06-12T06:18:35.708Z,68
2017-06-12T06:19:36.441Z,68
2017-06-12T06:20:37.171Z,68
2017-06-12T06:21:37.902Z,68
2017-06-12T06:22:38.634Z,67
2017-06-12T06:23:39.365Z,68
2017-06-12T06:24:40.121Z,67
2017-06-12T06:25:40.853Z,67
2017-06-12T06:26:41.586Z,67
2017-06-12T06:27:42.322Z,67
2017-06-12T06:28:43.055Z,67
2017-06-12T06:29:43.812Z,68
2017-06-12T06:30:44.569Z,68
2017-06-12T06:31:45.300Z,68
2017-06-12T06:32:46.031Z,68
2017-06-12T06:33:46.766Z,68
2017-06-12T06:34:47.499Z,67
2017-06-12T06:35:48.230Z,67
2017-06-12T06:36:48.962Z,67
2017-06-12T06:37:49.695Z,67
2017-06-12T06:38:50.428Z,66
2017-06-12T06:39:51.160Z,66
2017-06-12T06:40:51.891Z,65
2017-06-12T06:41:52.623Z,66
2017-06-12T06:42:53.357Z,65
2017-06-12T06:43:54.089Z,66
2017-06-12T06:44:54.821Z,65
2017-06-12T06:45:55.554Z,65
2017-06-12T06:46:56.284Z,65
2017-06-12T06:47:57.017Z,64
2017-06-12T06:48:57.751Z,64
2017-06-12T06:49:58.485Z,64
2017-06-12T06:50:59.216Z,64
2017-06-12T06:51:59.947Z,64
2017-06-12T06:53:00.683Z,64
2017-06-12T06:54:01.414Z,63
2017-06-12T06:55:02.150Z,63
2017-06-12T06:56:02.882Z,63
2017-06-12T06:57:03.615Z,64
2017-06-12T06:58:04.347Z,64
2017-06-12T06:59:05.076Z,63
2017-06-12T07:00:05.808Z,63
2017-06-12T07:01:06.542Z,63
2017-06-12T07:02:07.302Z,62
2017-06-12T07:03:08.035Z,62
2017-06-12T07:04:08.769Z,62
2017-06-12T07:05:09.503Z,63
2017-06-12T07:06:10.237Z,63
2017-06-12T07:07:10.971Z,63
2017-06-12T07:08:11.705Z,62
2017-06-12T07:09:12.441Z,63
2017-06-12T07:10:13.172Z,63
2017-06-12T07:11:13.906Z,64
2017-06-12T07:12:14.641Z,63
2017-06-12T07:13:15.377Z,62
2017-06-12T07:14:16.139Z,63
2017-06-12T07:15:16.873Z,62
2017-06-12T07:16:17.604Z,62
2017-06-12T07:17:18.339Z,62
2017-06-12T07:18:19.070Z,62
2017-06-12T07:19:19.804Z,62
2017-06-12T07:20:20.537Z,63
2017-06-12T07:21:21.268Z,63
2017-06-12T07:22:22.005Z,63
2017-06-12T07:23:22.737Z,64
2017-06-12T07:24:23.471Z,65
2017-06-12T07:25:24.209Z,65
2017-06-12T07:26:24.968Z,65
2017-06-12T07:27:25.700Z,64
2017-06-12T07:28:26.435Z,65
2017-06-12T07:29:27.170Z,65
2017-06-12T07:30:27.901Z,65
2017-06-12T07:31:28.639Z,65
2017-06-12T07:32:29.372Z,65
2017-06-12T07:33:30.106Z,65
2017-06-12T07:34:30.866Z,65
2017-06-12T07:35:31.599Z,65
2017-06-12T07:36:32.331Z,65
2017-06-12T07:37:33.065Z,65
2017-06-12T07:38:33.799Z,66
2017-06-12T07:39:34.530Z,66
2017-06-12T07:40:35.268Z,66
2017-06-12T07:41:35.994Z,65
2017-06-12T07:42:36.752Z,66
2017-06-12T07:43:37.484Z,66
2017-06-12T07:44:38.242Z,66
2017-06-12T07:45:38.977Z,66
2017-06-12T07:46:39.709Z,66
2017-06-12T07:47:40.446Z,66
2017-06-12T07:48:41.180Z,65
2017-06-12T07:49:41.914Z,65
2017-06-12T07:50:42.648Z,65
2017-06-12T07:51:43.381Z,64
2017-06-12T07:52:44.116Z,64
2017-06-12T07:53:44.852Z,64
2017-06-12T07:54:45.585Z,64
2017-06-12T07:55:46.319Z,63
2017-06-12T07:56:47.055Z,63
2017-06-12T07:57:47.789Z,63
2017-06-12T07:58:48.524Z,64
2017-06-12T07:59:49.263Z,63
2017-06-12T08:00:49.992Z,61
2017-06-12T08:01:50.725Z,62
2017-06-12T08:02:51.463Z,61
2017-06-12T08:03:52.201Z,61
2017-06-12T08:04:52.937Z,61
2017-06-12T08:05:53.675Z,61
2017-06-12T08:06:54.413Z,61
2017-06-12T08:07:55.148Z,62
2017-06-12T08:08:55.886Z,62
2017-06-12T08:09:56.625Z,62
2017-06-12T08:10:57.365Z,62
2017-06-12T08:11:58.097Z,62
2017-06-12T08:12:58.831Z,62
2017-06-12T08:13:59.589Z,64
2017-06-12T08:15:00.324Z,63
2017-06-12T08:16:01.058Z,63
2017-06-12T08:17:01.793Z,64
2017-06-12T08:18:02.527Z,63
2017-06-12T08:19:03.285Z,64
2017-06-12T08:20:04.017Z,64
2017-06-12T08:21:04.750Z,65
2017-06-12T08:22:05.510Z,65
2017-06-12T08:23:06.245Z,65
2017-06-12T08:24:06.979Z,64
2017-06-12T08:25:07.716Z,65
2017-06-12T08:26:08.449Z,64
2017-06-12T08:27:09.212Z,65
2017-06-12T08:28:09.943Z,65
2017-06-12T08:29:10.678Z,65
2017-06-12T08:30:11.437Z,65
2017-06-12T08:31:12.174Z,65
2017-06-12T08:32:12.904Z,65
2017-06-12T08:33:13.634Z,65
2017-06-12T08:34:14.369Z,65
2017-06-12T08:35:15.105Z,66
2017-06-12T08:36:15.841Z,66
2017-06-12T08:37:16.574Z,67
2017-06-12T08:38:17.307Z,66
2017-06-12T08:39:18.046Z,66
2017-06-12T08:40:18.779Z,66
2017-06-12T08:41:19.514Z,66
2017-06-12T08:42:20.274Z,66
2017-06-12T08:43:21.006Z,65
2017-06-12T08:44:21.739Z,66
2017-06-12T08:45:22.471Z,66
2017-06-12T08:46:23.232Z,66
2017-06-12T08:47:23.970Z,66
2017-06-12T08:48:24.708Z,63
2017-06-12T08:49:25.445Z,62
2017-06-12T08:50:26.186Z,60
2017-06-12T08:51:26.923Z,59
2017-06-12T08:52:27.664Z,58
2017-06-12T08:53:28.402Z,57
2017-06-12T08:54:29.147Z,56
2017-06-12T08:55:29.888Z,56
2017-06-12T08:56:30.630Z,57
2017-06-12T08:57:31.368Z,57
2017-06-12T08:58:32.130Z,57
2017-06-12T08:59:32.866Z,57
2017-06-12T09:00:33.602Z,57
2017-06-12T09:01:34.341Z,58
2017-06-12T09:02:35.078Z,58
2017-06-12T09:03:35.812Z,58
2017-06-12T09:04:36.547Z,58
2017-06-12T09:05:37.284Z,58
2017-06-12T09:06:38.018Z,59
2017-06-12T09:07:38.777Z,59
2017-06-12T09:08:39.511Z,60
2017-06-12T09:09:40.246Z,59
2017-06-12T09:10:40.983Z,59
2017-06-12T09:11:41.717Z,59
2017-06-12T09:12:42.453Z,60
2017-06-12T09:13:43.186Z,59
2017-06-12T09:14:43.922Z,58
2017-06-12T09:15:44.657Z,57
2017-06-12T09:16:45.395Z,57
2017-06-12T09:17:46.129Z,58
2017-06-12T09:18:46.866Z,57
2017-06-12T09:19:47.603Z,57
2017-06-12T09:20:48.333Z,57
2017-06-12T09:21:49.066Z,57
2017-06-12T09:22:49.803Z,57
2017-06-12T09:23:50.536Z,58
2017-06-12T09:24:51.269Z,57
2017-06-12T09:25:52.002Z,58
2017-06-12T09:26:52.740Z,58
2017-06-12T09:27:53.470Z,57
2017-06-12T09:28:54.205Z,57
2017-06-12T09:29:54.941Z,57
2017-06-12T09:30:55.672Z,57
2017-06-12T09:31:56.407Z,57
2017-06-12T09:32:57.141Z,57
2017-06-12T09:33:57.875Z,57
2017-06-12T09:34:58.611Z,58
2017-06-12T09:35:59.345Z,57
2017-06-12T09:37:00.084Z,56
2017-06-12T09:38:00.820Z,56
2017-06-12T09:39:01.556Z,55
2017-06-12T09:40:02.292Z,55
2017-06-12T09:41:03.027Z,55
2017-06-12T09:42:03.762Z,55
2017-06-12T09:43:04.496Z,55
2017-06-12T09:44:05.230Z,55
2017-06-12T09:45:05.968Z,55
2017-06-12T09:46:06.701Z,55
2017-06-12T09:47:07.438Z,56
2017-06-12T09:48:08.173Z,56
2017-06-12T09:49:08.908Z,56
2017-06-12T09:50:09.639Z,57
2017-06-12T09:51:10.372Z,57
2017-06-12T09:52:11.108Z,57
2017-06-12T09:53:11.841Z,57
2017-06-12T09:54:12.575Z,57
2017-06-12T09:55:13.311Z,57
2017-06-12T09:56:14.043Z,58
2017-06-12T09:57:14.776Z,58
2017-06-12T09:58:15.536Z,57
2017-06-12T09:59:16.269Z,57
2017-06-12T10:00:17.005Z,57
2017-06-12T10:01:17.739Z,57
2017-06-12T10:02:18.473Z,57
2017-06-12T10:03:19.211Z,57
2017-06-12T10:04:19.943Z,57
2017-06-12T10:05:20.674Z,57
2017-06-12T10:06:21.407Z,57
2017-06-12T10:07:22.139Z,57
2017-06-12T10:08:22.875Z,57
2017-06-12T10:09:23.609Z,57
2017-06-12T10:10:24.341Z,57
2017-06-12T10:11:25.098Z,57
2017-06-12T10:12:25.834Z,57
2017-06-12T10:13:26.570Z,57
2017-06-12T10:14:27.302Z,58
2017-06-12T10:15:28.036Z,56
2017-06-12T10:16:28.770Z,57
2017-06-12T10:17:29.505Z,57
2017-06-12T10:18:30.238Z,57
2017-06-12T10:19:30.975Z,56
2017-06-12T10:20:31.707Z,57
2017-06-12T10:21:32.443Z,57
2017-06-12T10:22:33.180Z,56
2017-06-12T10:23:33.917Z,56
2017-06-12T10:24:34.660Z,54
2017-06-12T10:25:35.392Z,54
2017-06-12T10:26:36.130Z,54
2017-06-12T10:27:36.868Z,53
2017-06-12T10:28:37.603Z,54
2017-06-12T10:29:38.341Z,53
2017-06-12T10:30:39.080Z,52
2017-06-12T10:31:39.841Z,53
2017-06-12T10:32:40.579Z,53
2017-06-12T10:33:41.316Z,54
2017-06-12T10:34:42.053Z,54
2017-06-12T10:35:42.792Z,53
2017-06-12T10:36:43.525Z,54
2017-06-12T10:37:44.262Z,53
2017-06-12T10:38:44.999Z,53
2017-06-12T10:39:45.736Z,53
2017-06-12T10:40:46.474Z,53
2017-06-12T10:41:47.212Z,53
2017-06-12T10:42:47.945Z,53
2017-06-12T10:43:48.707Z,54
2017-06-12T10:44:49.440Z,53
2017-06-12T10:45:50.177Z,53
2017-06-12T10:46:50.938Z,53
2017-06-12T10:47:51.675Z,52
2017-06-12T10:48:52.434Z,53
2017-06-12T10:49:53.172Z,52
2017-06-12T10:50:53.905Z,53
2017-06-12T10:51:54.642Z,53
2017-06-12T10:52:55.377Z,53
2017-06-12T10:53:56.109Z,52
2017-06-12T10:54:56.847Z,53
2017-06-12T10:55:57.578Z,53
2017-06-12T10:56:58.311Z,54
2017-06-12T10:57:59.044Z,54
2017-06-12T10:58:59.778Z,55
2017-06-12T11:00:00.511Z,55
2017-06-12T11:01:01.245Z,55
2017-06-12T11:02:01.978Z,55
2017-06-12T11:03:02.710Z,55
2017-06-12T11:04:03.445Z,54
2017-06-12T11:05:04.177Z,55
2017-06-12T11:06:04.912Z,56
2017-06-12T11:07:05.649Z,56
2017-06-12T11:08:06.379Z,56
2017-06-12T11:09:07.112Z,57
2017-06-12T11:10:07.848Z,57
2017-06-12T11:11:08.581Z,56
2017-06-12T11:12:09.314Z,56
2017-06-12T11:13:10.050Z,55
2017-06-12T11:14:10.784Z,55
2017-06-12T11:15:11.545Z,54
2017-06-12T11:16:12.279Z,54
2017-06-12T11:17:13.017Z,53
2017-06-12T11:18:13.757Z,53
2017-06-12T11:19:14.494Z,52
2017-06-12T11:20:15.234Z,52
2017-06-12T11:21:15.973Z,51
2017-06-12T11:22:16.712Z,50
2017-06-12T11:23:17.453Z,50
2017-06-12T11:24:18.192Z,50
2017-06-12T11:25:18.958Z,50
2017-06-12T11:26:19.693Z,50
2017-06-12T11:27:20.434Z,50
2017-06-12T11:28:21.171Z,51
2017-06-12T11:29:21.908Z,51
2017-06-12T11:30:22.647Z,51
2017-06-12T11:31:23.389Z,50
2017-06-12T11:32:24.130Z,50
2017-06-12T11:33:24.893Z,50
2017-06-12T11:34:25.630Z,50
2017-06-12T11:35:26.373Z,50
2017-06-12T11:36:27.133Z,50
2017-06-12T11:37:27.870Z,51
2017-06-12T11:38:28.609Z,51
2017-06-12T11:39:29.366Z,51
2017-06-12T11:40:30.102Z,52
2017-06-12T11:41:30.837Z,52
2017-06-12T11:42:31.569Z,53
2017-06-12T11:43:32.301Z,53
2017-06-12T11:44:33.035Z,54
2017-06-12T11:45:33.767Z,54
2017-06-12T11:46:34.502Z,55
2017-06-12T11:47:35.235Z,56
2017-06-12T11:48:35.970Z,56
2017-06-12T11:49:36.705Z,56
2017-06-12T11:50:37.437Z,56
2017-06-12T11:51:38.172Z,57
2017-06-12T11:52:38.907Z,57
2017-06-12T11:53:39.643Z,57
2017-06-12T11:54:40.377Z,58
2017-06-12T11:55:41.111Z,57
2017-06-12T11:56:41.846Z,57
2017-06-12T11:57:42.582Z,56
2017-06-12T11:58:43.326Z,55
2017-06-12T11:59:44.084Z,54
2017-06-12T12:00:44.819Z,54
2017-06-12T12:01:45.559Z,53
2017-06-12T12:02:46.295Z,53
2017-06-12T12:03:47.029Z,54
2017-06-12T12:04:47.786Z,54
2017-06-12T12:05:48.523Z,54
2017-06-12T12:06:49.257Z,54
2017-06-12T12:07:49.995Z,55
2017-06-12T12:08:50.750Z,56
2017-06-12T12:09:51.486Z,56
2017-06-12T12:10:52.220Z,56
2017-06-12T12:11:52.956Z,56
2017-06-12T12:12:53.690Z,56
2017-06-12T12:13:54.422Z,56
2017-06-12T12:14:55.155Z,56
2017-06-12T12:15:55.890Z,56
2017-06-12T12:16:56.624Z,55
2017-06-12T12:17:57.362Z,55
2017-06-12T12:18:58.115Z,55
2017-06-12T12:19:58.846Z,55
2017-06-12T12:20:59.582Z,55
2017-06-12T12:22:00.312Z,55
2017-06-12T12:23:01.043Z,56
2017-06-12T12:24:01.798Z,57
2017-06-12T12:25:02.555Z,56
2017-06-12T12:26:03.291Z,57
2017-06-12T12:27:04.021Z,57
2017-06-12T12:28:04.753Z,57
2017-06-12T12:29:05.486Z,57
2017-06-12T12:30:06.216Z,57
2017-06-12T12:31:06.947Z,57
2017-06-12T12:32:07.681Z,56
2017-06-12T12:33:08.423Z,56
2017-06-12T12:34:09.173Z,56
2017-06-12T12:35:09.908Z,55
2017-06-12T12:36:10.642Z,55
2017-06-12T12:37:11.378Z,55
2017-06-12T12:38:12.111Z,54
2017-06-12T12:39:12.847Z,53
2017-06-12T12:40:13.581Z,53
2017-06-12T12:41:14.316Z,52
2017-06-12T12:42:15.050Z,52
2017-06-12T12:43:15.788Z,52
2017-06-12T12:44:16.525Z,52
2017-06-12T12:45:17.263Z,52
2017-06-12T12:46:18.001Z,52
2017-06-12T12:47:18.740Z,52
2017-06-12T12:48:19.478Z,52
2017-06-12T12:49:20.217Z,51
2017-06-12T12:50:20.954Z,50
2017-06-12T12:51:21.690Z,51
2017-06-12T12:52:22.426Z,51
2017-06-12T12:53:23.164Z,52
2017-06-12T12:54:23.900Z,52
2017-06-12T12:55:24.634Z,52
2017-06-12T12:56:25.371Z,52
2017-06-12T12:57:26.107Z,53
2017-06-12T12:58:26.842Z,52
2017-06-12T12:59:27.580Z,53
2017-06-12T13:00:28.312Z,53
2017-06-12T13:01:29.047Z,53
2017-06-12T13:02:29.785Z,53
2017-06-12T13:03:30.526Z,53
2017-06-12T13:04:31.256Z,53
2017-06-12T13:05:31.992Z,52
2017-06-12T13:06:32.725Z,52
2017-06-12T13:07:33.462Z,51
2017-06-12T13:08:34.198Z,51
2017-06-12T13:09:34.934Z,50
2017-06-12T13:10:35.668Z,50
2017-06-12T13:11:36.403Z,50
2017-06-12T13:12:37.140Z,49
2017-06-12T13:13:37.877Z,49
2017-06-12T13:14:38.642Z,48
2017-06-12T13:15:39.379Z,49
2017-06-12T13:16:40.116Z,49
2017-06-12T13:17:40.851Z,48
2017-06-12T13:18:41.590Z,48
2017-06-12T13:19:42.329Z,48
2017-06-12T13:20:43.067Z,48
2017-06-12T13:21:43.804Z,50
2017-06-12T13:22:44.540Z,50
2017-06-12T13:23:45.280Z,51
2017-06-12T13:24:46.018Z,50
2017-06-12T13:25:46.758Z,51
2017-06-12T13:26:47.492Z,51
2017-06-12T13:27:48.228Z,52
2017-06-12T13:28:48.963Z,52
2017-06-12T13:29:49.697Z,52
2017-06-12T13:30:50.430Z,51
2017-06-12T13:31:51.164Z,52
2017-06-12T13:32:51.903Z,52
2017-06-12T13:33:52.637Z,51
2017-06-12T13:34:53.372Z,51
2017-06-12T13:35:54.108Z,50
2017-06-12T13:36:54.842Z,50
2017-06-12T13:37:55.578Z,50
2017-06-12T13:38:56.312Z,50
2017-06-12T13:39:57.051Z,50
2017-06-12T13:40:57.785Z,50
2017-06-12T13:41:58.518Z,50
2017-06-12T13:42:59.254Z,49
2017-06-12T13:44:00.017Z,49
2017-06-12T13:45:00.753Z,49
2017-06-12T13:46:01.488Z,49
2017-06-12T13:47:02.224Z,48
2017-06-12T13:48:02.957Z,49
2017-06-12T13:49:03.694Z,48
2017-06-12T13:50:04.431Z,48
2017-06-12T13:51:05.167Z,48
2017-06-12T13:52:05.904Z,48
2017-06-12T13:53:06.640Z,49
2017-06-12T13:54:07.376Z,49
2017-06-12T13:55:08.140Z,50
2017-06-12T13:56:08.876Z,50
2017-06-12T13:57:09.616Z,50
2017-06-12T13:58:10.343Z,50
2017-06-12T13:59:11.079Z,50
2017-06-12T14:00:11.810Z,51
2017-06-12T14:01:12.543Z,51
2017-06-12T14:02:13.279Z,51
2017-06-12T14:03:14.011Z,51
2017-06-12T14:04:14.767Z,52
2017-06-12T14:05:15.504Z,53
2017-06-12T14:06:16.238Z,53
2017-06-12T14:07:16.973Z,52
2017-06-12T14:08:17.703Z,52
2017-06-12T14:09:18.441Z,52
2017-06-12T14:10:19.174Z,52
2017-06-12T14:11:19.905Z,53
2017-06-12T14:12:20.638Z,52
2017-06-12T14:13:21.372Z,51
2017-06-12T14:14:22.105Z,52
2017-06-12T14:15:22.838Z,52
2017-06-12T14:16:23.569Z,52
2017-06-12T14:17:24.303Z,52
2017-06-12T14:18:25.039Z,52
2017-06-12T14:19:25.778Z,52
2017-06-12T14:20:26.502Z,53
2017-06-12T14:21:27.233Z,53
2017-06-12T14:22:27.967Z,53
2017-06-12T14:23:28.702Z,53
2017-06-12T14:24:29.442Z,52
2017-06-12T14:25:30.168Z,52
2017-06-12T14:26:30.900Z,52